sensor_id;sensor_type;location;lat;lon;timestamp;temperature;humidity
35635;DHT22;21757;43.610;1.440;2023-02-01T00:01:59;8.80;99.90
35635;DHT22;21757;43.610;1.440;2023-02-01T00:04:25;8.80;99.90
35635;DHT22;21757;43.610;1.440;2023-02-01T00:06:51;8.80;99.90
35635;DHT22;21757;43.610;1.440;2023-02-01T00:09:17;8.80;99.90
35635;DHT22;21757;43.610;1.440;2023-02-01T00:11:42;8.80;99.90
35635;DHT22;21757;43.610;1.440;2023-02-01T00:14:08;8.80;99.90
35635;DHT22;21757;43.610;1.440;2023-02-01T00:16:34;8.80;99.90
35635;DHT22;21757;43.610;1.440;2023-02-01T00:19:07;8.80;99.90
35635;DHT22;21757;43.610;1.440;2023-02-01T00:21:33;8.80;99.90
35635;DHT22;21757;43.610;1.440;2023-02-01T00:23:59;8.80;99.90
35635;DHT22;21757;43.610;1.440;2023-02-01T00:26:39;8.80;99.90
35635;DHT22;21757;43.610;1.440;2023-02-01T00:29:09;8.80;99.90
35635;DHT22;21757;43.610;1.440;2023-02-01T00:31:36;8.80;99.90
35635;DHT22;21757;43.610;1.440;2023-02-01T00:34:02;8.80;99.90
35635;DHT22;21757;43.610;1.440;2023-02-01T00:36:28;8.80;99.90
35635;DHT22;21757;43.610;1.440;2023-02-01T00:38:54;8.80;99.90
35635;DHT22;21757;43.610;1.440;2023-02-01T00:41:21;8.80;99.90
35635;DHT22;21757;43.610;1.440;2023-02-01T00:43:48;8.80;99.90
35635;DHT22;21757;43.610;1.440;2023-02-01T00:46:15;8.80;99.90
35635;DHT22;21757;43.610;1.440;2023-02-01T00:48:41;8.80;99.90
35635;DHT22;21757;43.610;1.440;2023-02-01T00:51:10;8.70;99.90
35635;DHT22;21757;43.610;1.440;2023-02-01T00:53:36;8.80;99.90
35635;DHT22;21757;43.610;1.440;2023-02-01T00:56:03;8.80;99.90
35635;DHT22;21757;43.610;1.440;2023-02-01T00:58:29;8.70;99.90
35635;DHT22;21757;43.610;1.440;2023-02-01T01:03:29;8.80;99.90
35635;DHT22;21757;43.610;1.440;2023-02-01T01:05:59;8.70;99.90
35635;DHT22;21757;43.610;1.440;2023-02-01T01:08:25;8.70;99.90
35635;DHT22;21757;43.610;1.440;2023-02-01T01:10:52;8.70;99.90
35635;DHT22;21757;43.610;1.440;2023-02-01T01:13:17;8.60;99.90
35635;DHT22;21757;43.610;1.440;2023-02-01T01:15:43;8.70;99.90
35635;DHT22;21757;43.610;1.440;2023-02-01T01:18:09;8.60;99.90
35635;DHT22;21757;43.610;1.440;2023-02-01T01:20:37;8.60;99.90
35635;DHT22;21757;43.610;1.440;2023-02-01T01:23:04;8.60;99.90
35635;DHT22;21757;43.610;1.440;2023-02-01T01:25:30;8.60;99.90
35635;DHT22;21757;43.610;1.440;2023-02-01T01:27:56;8.60;99.90
35635;DHT22;21757;43.610;1.440;2023-02-01T01:30:22;8.60;99.90
35635;DHT22;21757;43.610;1.440;2023-02-01T01:32:48;8.50;99.90
35635;DHT22;21757;43.610;1.440;2023-02-01T01:35:13;8.60;99.90
35635;DHT22;21757;43.610;1.440;2023-02-01T01:37:39;8.60;99.90
35635;DHT22;21757;43.610;1.440;2023-02-01T01:40:06;8.60;99.90
35635;DHT22;21757;43.610;1.440;2023-02-01T01:42:40;8.60;99.90
35635;DHT22;21757;43.610;1.440;2023-02-01T01:47:54;8.60;99.90
35635;DHT22;21757;43.610;1.440;2023-02-01T01:50:27;8.50;99.90
35635;DHT22;21757;43.610;1.440;2023-02-01T01:52:55;8.50;99.90
35635;DHT22;21757;43.610;1.440;2023-02-01T01:55:24;8.50;99.90
35635;DHT22;21757;43.610;1.440;2023-02-01T01:57:58;8.50;99.90
35635;DHT22;21757;43.610;1.440;2023-02-01T02:00:25;8.50;99.90
35635;DHT22;21757;43.610;1.440;2023-02-01T02:02:57;8.50;99.90
35635;DHT22;21757;43.610;1.440;2023-02-01T02:05:24;8.50;99.90
35635;DHT22;21757;43.610;1.440;2023-02-01T02:07:52;8.50;99.90
35635;DHT22;21757;43.610;1.440;2023-02-01T02:10:19;8.40;99.90
35635;DHT22;21757;43.610;1.440;2023-02-01T02:12:47;8.30;99.90
35635;DHT22;21757;43.610;1.440;2023-02-01T02:15:14;8.30;99.90
35635;DHT22;21757;43.610;1.440;2023-02-01T02:18:01;8.20;99.90
35635;DHT22;21757;43.610;1.440;2023-02-01T02:20:45;8.20;99.90
35635;DHT22;21757;43.610;1.440;2023-02-01T02:34:56;8.20;99.90
35635;DHT22;21757;43.610;1.440;2023-02-01T02:37:48;8.20;99.90
35635;DHT22;21757;43.610;1.440;2023-02-01T02:40:24;8.10;99.90
35635;DHT22;21757;43.610;1.440;2023-02-01T02:43:22;8.20;99.90
35635;DHT22;21757;43.610;1.440;2023-02-01T02:49:11;8.10;99.90
35635;DHT22;21757;43.610;1.440;2023-02-01T02:51:46;8.10;99.90
35635;DHT22;21757;43.610;1.440;2023-02-01T02:54:36;8.10;99.90
35635;DHT22;21757;43.610;1.440;2023-02-01T02:57:14;8.10;99.90
35635;DHT22;21757;43.610;1.440;2023-02-01T03:00:02;8.20;99.90
35635;DHT22;21757;43.610;1.440;2023-02-01T03:02:48;8.20;99.90
35635;DHT22;21757;43.610;1.440;2023-02-01T03:05:35;8.20;99.90
35635;DHT22;21757;43.610;1.440;2023-02-01T03:08:04;8.20;99.90
35635;DHT22;21757;43.610;1.440;2023-02-01T03:10:43;8.20;99.90
35635;DHT22;21757;43.610;1.440;2023-02-01T03:13:18;8.20;99.90
35635;DHT22;21757;43.610;1.440;2023-02-01T03:16:28;8.30;99.90
35635;DHT22;21757;43.610;1.440;2023-02-01T03:19:14;8.30;99.90
35635;DHT22;21757;43.610;1.440;2023-02-01T03:21:55;8.30;99.90
35635;DHT22;21757;43.610;1.440;2023-02-01T03:24:29;8.40;99.90
35635;DHT22;21757;43.610;1.440;2023-02-01T03:27:17;8.30;99.90
35635;DHT22;21757;43.610;1.440;2023-02-01T03:32:28;8.30;99.90
35635;DHT22;21757;43.610;1.440;2023-02-01T03:34:54;8.30;99.90
35635;DHT22;21757;43.610;1.440;2023-02-01T03:37:26;8.30;99.90
35635;DHT22;21757;43.610;1.440;2023-02-01T03:40:10;8.40;99.90
35635;DHT22;21757;43.610;1.440;2023-02-01T03:42:37;8.40;99.90
35635;DHT22;21757;43.610;1.440;2023-02-01T03:47:42;8.40;99.90
35635;DHT22;21757;43.610;1.440;2023-02-01T03:50:12;8.30;99.90
35635;DHT22;21757;43.610;1.440;2023-02-01T03:52:48;8.40;99.90
35635;DHT22;21757;43.610;1.440;2023-02-01T03:55:18;8.30;99.90
35635;DHT22;21757;43.610;1.440;2023-02-01T03:58:19;8.40;99.90
35635;DHT22;21757;43.610;1.440;2023-02-01T04:00:59;8.40;99.90
35635;DHT22;21757;43.610;1.440;2023-02-01T04:03:26;8.40;99.90
35635;DHT22;21757;43.610;1.440;2023-02-01T04:05:53;8.40;99.90
35635;DHT22;21757;43.610;1.440;2023-02-01T04:08:20;8.40;99.90
35635;DHT22;21757;43.610;1.440;2023-02-01T04:10:46;8.50;99.90
35635;DHT22;21757;43.610;1.440;2023-02-01T04:13:12;8.50;99.90
35635;DHT22;21757;43.610;1.440;2023-02-01T04:15:39;8.50;99.90
35635;DHT22;21757;43.610;1.440;2023-02-01T04:18:05;8.50;99.90
35635;DHT22;21757;43.610;1.440;2023-02-01T04:20:31;8.50;99.90
35635;DHT22;21757;43.610;1.440;2023-02-01T04:22:57;8.60;99.90
35635;DHT22;21757;43.610;1.440;2023-02-01T04:25:23;8.60;99.90
35635;DHT22;21757;43.610;1.440;2023-02-01T04:27:49;8.60;99.90
35635;DHT22;21757;43.610;1.440;2023-02-01T04:30:15;8.60;99.90
35635;DHT22;21757;43.610;1.440;2023-02-01T04:32:41;8.60;99.90
35635;DHT22;21757;43.610;1.440;2023-02-01T04:35:07;8.60;99.90
35635;DHT22;21757;43.610;1.440;2023-02-01T04:37:33;8.60;99.90
35635;DHT22;21757;43.610;1.440;2023-02-01T04:39:59;8.60;99.90
35635;DHT22;21757;43.610;1.440;2023-02-01T04:42:25;8.60;99.90
35635;DHT22;21757;43.610;1.440;2023-02-01T04:44:51;8.60;99.90
35635;DHT22;21757;43.610;1.440;2023-02-01T04:47:16;8.60;99.90
35635;DHT22;21757;43.610;1.440;2023-02-01T04:49:42;8.60;99.90
35635;DHT22;21757;43.610;1.440;2023-02-01T04:52:08;8.60;99.90
35635;DHT22;21757;43.610;1.440;2023-02-01T04:54:33;8.60;99.90
35635;DHT22;21757;43.610;1.440;2023-02-01T04:56:59;8.60;99.90
35635;DHT22;21757;43.610;1.440;2023-02-01T04:59:25;8.60;99.90
35635;DHT22;21757;43.610;1.440;2023-02-01T05:01:51;8.60;99.90
35635;DHT22;21757;43.610;1.440;2023-02-01T05:04:16;8.70;99.90
35635;DHT22;21757;43.610;1.440;2023-02-01T05:06:44;8.60;99.90
35635;DHT22;21757;43.610;1.440;2023-02-01T05:09:10;8.60;99.90
35635;DHT22;21757;43.610;1.440;2023-02-01T05:11:36;8.60;99.90
35635;DHT22;21757;43.610;1.440;2023-02-01T05:14:20;8.60;99.90
35635;DHT22;21757;43.610;1.440;2023-02-01T05:16:46;8.60;99.90
35635;DHT22;21757;43.610;1.440;2023-02-01T05:19:12;8.60;99.90
35635;DHT22;21757;43.610;1.440;2023-02-01T05:21:38;8.60;99.90
35635;DHT22;21757;43.610;1.440;2023-02-01T05:24:04;8.60;99.90
35635;DHT22;21757;43.610;1.440;2023-02-01T05:26:39;8.60;99.90
35635;DHT22;21757;43.610;1.440;2023-02-01T05:29:06;8.70;99.90
35635;DHT22;21757;43.610;1.440;2023-02-01T05:31:32;8.70;99.90
35635;DHT22;21757;43.610;1.440;2023-02-01T05:33:58;8.70;99.90
35635;DHT22;21757;43.610;1.440;2023-02-01T05:36:24;8.60;99.90
35635;DHT22;21757;43.610;1.440;2023-02-01T05:38:49;8.60;99.90
35635;DHT22;21757;43.610;1.440;2023-02-01T05:41:15;8.50;99.90
35635;DHT22;21757;43.610;1.440;2023-02-01T05:43:41;8.60;99.90
35635;DHT22;21757;43.610;1.440;2023-02-01T05:46:06;8.50;99.90
35635;DHT22;21757;43.610;1.440;2023-02-01T05:48:32;8.50;99.90
35635;DHT22;21757;43.610;1.440;2023-02-01T05:50:58;8.50;99.90
35635;DHT22;21757;43.610;1.440;2023-02-01T05:53:23;8.40;99.90
35635;DHT22;21757;43.610;1.440;2023-02-01T05:55:49;8.40;99.90
35635;DHT22;21757;43.610;1.440;2023-02-01T05:58:15;8.40;99.90
35635;DHT22;21757;43.610;1.440;2023-02-01T06:00:40;8.40;99.90
35635;DHT22;21757;43.610;1.440;2023-02-01T06:03:07;8.50;99.90
35635;DHT22;21757;43.610;1.440;2023-02-01T06:05:32;8.40;99.90
35635;DHT22;21757;43.610;1.440;2023-02-01T06:07:58;8.50;99.90
35635;DHT22;21757;43.610;1.440;2023-02-01T06:10:24;8.50;99.90
35635;DHT22;21757;43.610;1.440;2023-02-01T06:12:50;8.50;99.90
35635;DHT22;21757;43.610;1.440;2023-02-01T06:15:16;8.50;99.90
35635;DHT22;21757;43.610;1.440;2023-02-01T06:17:43;8.50;99.90
35635;DHT22;21757;43.610;1.440;2023-02-01T06:20:10;8.50;99.90
35635;DHT22;21757;43.610;1.440;2023-02-01T06:22:36;8.50;99.90
35635;DHT22;21757;43.610;1.440;2023-02-01T06:25:03;8.50;99.90
35635;DHT22;21757;43.610;1.440;2023-02-01T06:27:29;8.50;99.90
35635;DHT22;21757;43.610;1.440;2023-02-01T06:29:55;8.50;99.90
35635;DHT22;21757;43.610;1.440;2023-02-01T06:32:21;8.60;99.90
35635;DHT22;21757;43.610;1.440;2023-02-01T06:34:48;8.60;99.90
35635;DHT22;21757;43.610;1.440;2023-02-01T06:37:14;8.50;99.90
35635;DHT22;21757;43.610;1.440;2023-02-01T06:39:39;8.50;99.90
35635;DHT22;21757;43.610;1.440;2023-02-01T06:42:05;8.50;99.90
35635;DHT22;21757;43.610;1.440;2023-02-01T06:44:31;8.40;99.90
35635;DHT22;21757;43.610;1.440;2023-02-01T06:46:56;8.40;99.90
35635;DHT22;21757;43.610;1.440;2023-02-01T06:49:22;8.50;99.90
35635;DHT22;21757;43.610;1.440;2023-02-01T06:51:48;8.40;99.90
35635;DHT22;21757;43.610;1.440;2023-02-01T06:54:13;8.50;99.90
35635;DHT22;21757;43.610;1.440;2023-02-01T06:56:39;8.50;99.90
35635;DHT22;21757;43.610;1.440;2023-02-01T06:59:06;8.50;99.90
35635;DHT22;21757;43.610;1.440;2023-02-01T07:01:32;8.50;99.90
35635;DHT22;21757;43.610;1.440;2023-02-01T07:03:57;8.50;99.90
35635;DHT22;21757;43.610;1.440;2023-02-01T07:06:23;8.50;99.90
35635;DHT22;21757;43.610;1.440;2023-02-01T07:08:49;8.50;99.90
35635;DHT22;21757;43.610;1.440;2023-02-01T07:11:17;8.40;99.90
35635;DHT22;21757;43.610;1.440;2023-02-01T07:13:43;8.50;99.90
35635;DHT22;21757;43.610;1.440;2023-02-01T07:16:11;8.50;99.90
35635;DHT22;21757;43.610;1.440;2023-02-01T07:18:37;8.40;99.90
35635;DHT22;21757;43.610;1.440;2023-02-01T07:21:03;8.40;99.90
35635;DHT22;21757;43.610;1.440;2023-02-01T07:23:29;8.40;99.90
35635;DHT22;21757;43.610;1.440;2023-02-01T07:25:59;8.40;99.90
35635;DHT22;21757;43.610;1.440;2023-02-01T07:28:26;8.50;99.90
35635;DHT22;21757;43.610;1.440;2023-02-01T07:30:53;8.50;99.90
35635;DHT22;21757;43.610;1.440;2023-02-01T07:33:23;8.50;99.90
35635;DHT22;21757;43.610;1.440;2023-02-01T07:35:50;8.50;99.90
35635;DHT22;21757;43.610;1.440;2023-02-01T07:38:16;8.50;99.90
35635;DHT22;21757;43.610;1.440;2023-02-01T07:40:42;8.50;99.90
35635;DHT22;21757;43.610;1.440;2023-02-01T07:43:08;8.40;99.90
35635;DHT22;21757;43.610;1.440;2023-02-01T07:45:35;8.30;99.90
35635;DHT22;21757;43.610;1.440;2023-02-01T07:48:01;8.30;99.90
35635;DHT22;21757;43.610;1.440;2023-02-01T07:50:27;8.20;99.90
35635;DHT22;21757;43.610;1.440;2023-02-01T07:52:53;8.30;99.90
35635;DHT22;21757;43.610;1.440;2023-02-01T07:55:19;8.30;99.90
35635;DHT22;21757;43.610;1.440;2023-02-01T07:57:45;8.40;99.90
35635;DHT22;21757;43.610;1.440;2023-02-01T08:00:11;8.40;99.90
35635;DHT22;21757;43.610;1.440;2023-02-01T08:02:59;8.50;99.90
35635;DHT22;21757;43.610;1.440;2023-02-01T08:05:26;8.50;99.90
35635;DHT22;21757;43.610;1.440;2023-02-01T08:07:51;8.50;99.90
35635;DHT22;21757;43.610;1.440;2023-02-01T08:10:18;8.50;99.90
35635;DHT22;21757;43.610;1.440;2023-02-01T08:12:44;8.50;99.90
35635;DHT22;21757;43.610;1.440;2023-02-01T08:15:17;8.50;99.90
35635;DHT22;21757;43.610;1.440;2023-02-01T08:17:49;8.50;99.90
35635;DHT22;21757;43.610;1.440;2023-02-01T08:20:16;8.60;99.90
35635;DHT22;21757;43.610;1.440;2023-02-01T08:22:42;8.40;99.90
35635;DHT22;21757;43.610;1.440;2023-02-01T08:25:08;8.50;99.90
35635;DHT22;21757;43.610;1.440;2023-02-01T08:27:34;8.60;99.90
35635;DHT22;21757;43.610;1.440;2023-02-01T08:30:00;8.60;99.90
35635;DHT22;21757;43.610;1.440;2023-02-01T08:32:26;8.70;99.90
35635;DHT22;21757;43.610;1.440;2023-02-01T08:34:52;8.80;99.90
35635;DHT22;21757;43.610;1.440;2023-02-01T08:37:18;8.80;99.90
35635;DHT22;21757;43.610;1.440;2023-02-01T08:39:44;8.70;99.90
35635;DHT22;21757;43.610;1.440;2023-02-01T08:42:10;8.70;99.90
35635;DHT22;21757;43.610;1.440;2023-02-01T08:44:55;8.80;99.90
35635;DHT22;21757;43.610;1.440;2023-02-01T08:47:20;8.80;99.90
35635;DHT22;21757;43.610;1.440;2023-02-01T08:49:46;8.80;99.90
35635;DHT22;21757;43.610;1.440;2023-02-01T08:52:12;8.90;99.90
35635;DHT22;21757;43.610;1.440;2023-02-01T08:54:38;9.00;99.90
35635;DHT22;21757;43.610;1.440;2023-02-01T08:57:05;9.00;99.90
35635;DHT22;21757;43.610;1.440;2023-02-01T08:59:31;9.10;99.90
35635;DHT22;21757;43.610;1.440;2023-02-01T09:01:56;9.10;99.90
35635;DHT22;21757;43.610;1.440;2023-02-01T09:04:22;9.10;99.90
35635;DHT22;21757;43.610;1.440;2023-02-01T09:06:48;9.00;99.90
35635;DHT22;21757;43.610;1.440;2023-02-01T09:09:13;9.10;99.90
35635;DHT22;21757;43.610;1.440;2023-02-01T09:11:39;9.20;99.90
35635;DHT22;21757;43.610;1.440;2023-02-01T09:14:05;9.20;99.90
35635;DHT22;21757;43.610;1.440;2023-02-01T09:16:31;9.40;99.90
35635;DHT22;21757;43.610;1.440;2023-02-01T09:18:57;9.30;99.90
35635;DHT22;21757;43.610;1.440;2023-02-01T09:21:23;9.50;99.90
35635;DHT22;21757;43.610;1.440;2023-02-01T09:23:50;9.40;99.90
35635;DHT22;21757;43.610;1.440;2023-02-01T09:26:16;9.30;99.90
35635;DHT22;21757;43.610;1.440;2023-02-01T09:28:42;9.40;99.90
35635;DHT22;21757;43.610;1.440;2023-02-01T09:31:08;9.40;99.90
35635;DHT22;21757;43.610;1.440;2023-02-01T09:33:34;9.50;99.90
35635;DHT22;21757;43.610;1.440;2023-02-01T09:36:02;9.70;99.90
35635;DHT22;21757;43.610;1.440;2023-02-01T09:38:29;9.70;99.90
35635;DHT22;21757;43.610;1.440;2023-02-01T09:40:56;9.80;99.90
35635;DHT22;21757;43.610;1.440;2023-02-01T09:46:22;9.70;99.90
35635;DHT22;21757;43.610;1.440;2023-02-01T09:48:51;9.70;99.90
35635;DHT22;21757;43.610;1.440;2023-02-01T09:51:27;9.70;99.90
35635;DHT22;21757;43.610;1.440;2023-02-01T10:02:03;9.30;99.90
35635;DHT22;21757;43.610;1.440;2023-02-01T10:04:30;9.30;99.90
35635;DHT22;21757;43.610;1.440;2023-02-01T10:25:55;9.00;99.90
35635;DHT22;21757;43.610;1.440;2023-02-01T10:28:21;8.90;99.90
35635;DHT22;21757;43.610;1.440;2023-02-01T10:30:50;8.80;99.90
35635;DHT22;21757;43.610;1.440;2023-02-01T10:33:30;8.80;99.90
35635;DHT22;21757;43.610;1.440;2023-02-01T10:36:35;8.80;99.90
35635;DHT22;21757;43.610;1.440;2023-02-01T10:39:03;8.80;99.90
35635;DHT22;21757;43.610;1.440;2023-02-01T10:41:34;8.90;99.90
35635;DHT22;21757;43.610;1.440;2023-02-01T10:44:03;9.00;99.90
35635;DHT22;21757;43.610;1.440;2023-02-01T10:46:31;9.30;99.90
35635;DHT22;21757;43.610;1.440;2023-02-01T10:49:00;9.60;99.90
35635;DHT22;21757;43.610;1.440;2023-02-01T10:51:32;9.70;99.90
35635;DHT22;21757;43.610;1.440;2023-02-01T10:54:51;9.70;99.90
35635;DHT22;21757;43.610;1.440;2023-02-01T10:56:57;9.90;99.90
35635;DHT22;21757;43.610;1.440;2023-02-01T10:59:25;9.70;99.90
35635;DHT22;21757;43.610;1.440;2023-02-01T11:01:59;9.80;99.90
35635;DHT22;21757;43.610;1.440;2023-02-01T11:04:26;9.70;99.90
35635;DHT22;21757;43.610;1.440;2023-02-01T11:07:20;9.50;99.90
35635;DHT22;21757;43.610;1.440;2023-02-01T11:09:51;9.70;99.90
35635;DHT22;21757;43.610;1.440;2023-02-01T11:12:37;9.80;99.90
35635;DHT22;21757;43.610;1.440;2023-02-01T11:15:18;9.90;99.90
35635;DHT22;21757;43.610;1.440;2023-02-01T11:17:46;10.50;99.90
35635;DHT22;21757;43.610;1.440;2023-02-01T11:22:47;10.20;99.90
35635;DHT22;21757;43.610;1.440;2023-02-01T11:25:16;10.20;99.90
35635;DHT22;21757;43.610;1.440;2023-02-01T11:27:43;10.30;99.90
35635;DHT22;21757;43.610;1.440;2023-02-01T11:30:16;10.50;99.90
35635;DHT22;21757;43.610;1.440;2023-02-01T11:32:46;10.60;99.90
35635;DHT22;21757;43.610;1.440;2023-02-01T11:35:17;10.50;99.90
35635;DHT22;21757;43.610;1.440;2023-02-01T11:37:52;10.00;99.90
35635;DHT22;21757;43.610;1.440;2023-02-01T11:42:57;10.10;99.90
35635;DHT22;21757;43.610;1.440;2023-02-01T11:45:33;10.30;99.90
35635;DHT22;21757;43.610;1.440;2023-02-01T11:48:00;10.30;99.90
35635;DHT22;21757;43.610;1.440;2023-02-01T11:56:37;10.50;99.90
35635;DHT22;21757;43.610;1.440;2023-02-01T11:59:34;10.40;99.90
35635;DHT22;21757;43.610;1.440;2023-02-01T12:10:50;10.50;99.90
35635;DHT22;21757;43.610;1.440;2023-02-01T12:16:35;10.50;99.90
35635;DHT22;21757;43.610;1.440;2023-02-01T12:35:13;10.30;99.90
35635;DHT22;21757;43.610;1.440;2023-02-01T12:38:03;10.60;99.90
35635;DHT22;21757;43.610;1.440;2023-02-01T12:45:41;10.30;99.90
35635;DHT22;21757;43.610;1.440;2023-02-01T12:50:47;10.20;99.90
35635;DHT22;21757;43.610;1.440;2023-02-01T12:53:22;10.50;99.90
35635;DHT22;21757;43.610;1.440;2023-02-01T12:55:55;10.70;99.90
35635;DHT22;21757;43.610;1.440;2023-02-01T12:58:46;10.90;99.90
35635;DHT22;21757;43.610;1.440;2023-02-01T13:06:52;11.00;99.90
35635;DHT22;21757;43.610;1.440;2023-02-01T13:09:27;11.20;99.90
35635;DHT22;21757;43.610;1.440;2023-02-01T13:11:58;11.00;99.90
35635;DHT22;21757;43.610;1.440;2023-02-01T13:14:38;10.80;99.90
35635;DHT22;21757;43.610;1.440;2023-02-01T13:17:24;10.70;99.90
35635;DHT22;21757;43.610;1.440;2023-02-01T13:22:46;10.70;99.90
35635;DHT22;21757;43.610;1.440;2023-02-01T13:25:18;10.90;99.90
35635;DHT22;21757;43.610;1.440;2023-02-01T13:27:46;10.60;99.90
35635;DHT22;21757;43.610;1.440;2023-02-01T13:30:34;10.50;99.90
35635;DHT22;21757;43.610;1.440;2023-02-01T13:41:28;10.20;99.90
35635;DHT22;21757;43.610;1.440;2023-02-01T13:43:58;10.20;99.90
35635;DHT22;21757;43.610;1.440;2023-02-01T13:46:25;10.10;99.90
35635;DHT22;21757;43.610;1.440;2023-02-01T13:48:57;10.10;99.90
35635;DHT22;21757;43.610;1.440;2023-02-01T13:51:42;10.10;99.90
35635;DHT22;21757;43.610;1.440;2023-02-01T13:54:42;10.00;99.90
35635;DHT22;21757;43.610;1.440;2023-02-01T13:57:37;10.00;99.90
35635;DHT22;21757;43.610;1.440;2023-02-01T14:03:09;10.20;99.90
35635;DHT22;21757;43.610;1.440;2023-02-01T14:10:56;10.00;99.90
35635;DHT22;21757;43.610;1.440;2023-02-01T14:13:41;10.00;99.90
35635;DHT22;21757;43.610;1.440;2023-02-01T14:16:15;10.00;99.90
35635;DHT22;21757;43.610;1.440;2023-02-01T14:21:29;10.00;99.90
35635;DHT22;21757;43.610;1.440;2023-02-01T14:27:16;10.00;99.90
35635;DHT22;21757;43.610;1.440;2023-02-01T14:29:42;10.10;99.90
35635;DHT22;21757;43.610;1.440;2023-02-01T14:34:49;9.90;99.90
35635;DHT22;21757;43.610;1.440;2023-02-01T14:47:45;10.20;99.90
35635;DHT22;21757;43.610;1.440;2023-02-01T14:53:20;10.20;99.90
35635;DHT22;21757;43.610;1.440;2023-02-01T14:56:15;10.10;99.90
35635;DHT22;21757;43.610;1.440;2023-02-01T14:59:00;10.20;99.90
35635;DHT22;21757;43.610;1.440;2023-02-01T15:01:32;10.20;99.90
35635;DHT22;21757;43.610;1.440;2023-02-01T15:04:15;10.10;99.90
35635;DHT22;21757;43.610;1.440;2023-02-01T15:07:03;10.20;99.90
35635;DHT22;21757;43.610;1.440;2023-02-01T15:09:33;10.10;99.90
35635;DHT22;21757;43.610;1.440;2023-02-01T15:12:05;10.00;99.90
35635;DHT22;21757;43.610;1.440;2023-02-01T15:14:47;9.90;99.90
35635;DHT22;21757;43.610;1.440;2023-02-01T15:17:26;10.00;99.90
35635;DHT22;21757;43.610;1.440;2023-02-01T15:19:56;9.90;99.90
35635;DHT22;21757;43.610;1.440;2023-02-01T15:22:24;10.00;99.90
35635;DHT22;21757;43.610;1.440;2023-02-01T15:24:54;10.10;99.90
35635;DHT22;21757;43.610;1.440;2023-02-01T15:27:20;10.20;99.90
35635;DHT22;21757;43.610;1.440;2023-02-01T15:29:46;10.30;99.90
35635;DHT22;21757;43.610;1.440;2023-02-01T15:32:31;10.30;99.90
35635;DHT22;21757;43.610;1.440;2023-02-01T15:34:58;10.20;99.90
35635;DHT22;21757;43.610;1.440;2023-02-01T15:37:26;10.10;99.90
35635;DHT22;21757;43.610;1.440;2023-02-01T15:42:57;10.30;99.90
35635;DHT22;21757;43.610;1.440;2023-02-01T15:45:29;10.20;99.90
35635;DHT22;21757;43.610;1.440;2023-02-01T15:47:58;10.20;99.90
35635;DHT22;21757;43.610;1.440;2023-02-01T15:50:24;10.00;99.90
35635;DHT22;21757;43.610;1.440;2023-02-01T15:52:53;10.10;99.90
35635;DHT22;21757;43.610;1.440;2023-02-01T15:55:30;10.20;99.90
35635;DHT22;21757;43.610;1.440;2023-02-01T15:57:58;10.00;99.90
35635;DHT22;21757;43.610;1.440;2023-02-01T16:00:30;10.00;99.90
35635;DHT22;21757;43.610;1.440;2023-02-01T16:03:21;9.90;99.90
35635;DHT22;21757;43.610;1.440;2023-02-01T16:05:56;10.00;99.90
35635;DHT22;21757;43.610;1.440;2023-02-01T16:08:24;10.00;99.90
35635;DHT22;21757;43.610;1.440;2023-02-01T16:10:52;10.00;99.90
35635;DHT22;21757;43.610;1.440;2023-02-01T16:13:19;10.00;99.90
35635;DHT22;21757;43.610;1.440;2023-02-01T16:15:46;10.00;99.90
35635;DHT22;21757;43.610;1.440;2023-02-01T16:18:14;10.00;99.90
35635;DHT22;21757;43.610;1.440;2023-02-01T16:20:42;9.90;99.90
35635;DHT22;21757;43.610;1.440;2023-02-01T16:23:09;9.90;99.90
35635;DHT22;21757;43.610;1.440;2023-02-01T16:25:35;9.90;99.90
35635;DHT22;21757;43.610;1.440;2023-02-01T16:28:01;9.90;99.90
35635;DHT22;21757;43.610;1.440;2023-02-01T16:30:27;9.90;99.90
35635;DHT22;21757;43.610;1.440;2023-02-01T16:32:57;9.90;99.90
35635;DHT22;21757;43.610;1.440;2023-02-01T16:35:28;9.80;99.90
35635;DHT22;21757;43.610;1.440;2023-02-01T16:37:55;9.80;99.90
35635;DHT22;21757;43.610;1.440;2023-02-01T16:40:21;9.80;99.90
35635;DHT22;21757;43.610;1.440;2023-02-01T16:42:50;9.80;99.90
35635;DHT22;21757;43.610;1.440;2023-02-01T16:45:16;9.80;99.90
35635;DHT22;21757;43.610;1.440;2023-02-01T16:47:46;9.80;99.90
35635;DHT22;21757;43.610;1.440;2023-02-01T16:50:18;9.80;99.90
35635;DHT22;21757;43.610;1.440;2023-02-01T16:52:46;9.70;99.90
35635;DHT22;21757;43.610;1.440;2023-02-01T16:55:17;9.70;99.90
35635;DHT22;21757;43.610;1.440;2023-02-01T16:57:44;9.80;99.90
35635;DHT22;21757;43.610;1.440;2023-02-01T17:00:11;9.70;99.90
35635;DHT22;21757;43.610;1.440;2023-02-01T17:02:37;9.60;99.90
35635;DHT22;21757;43.610;1.440;2023-02-01T17:05:03;9.60;99.90
35635;DHT22;21757;43.610;1.440;2023-02-01T17:07:29;9.50;99.90
35635;DHT22;21757;43.610;1.440;2023-02-01T17:09:55;9.40;99.90
35635;DHT22;21757;43.610;1.440;2023-02-01T17:12:22;9.30;99.90
35635;DHT22;21757;43.610;1.440;2023-02-01T17:14:48;9.10;99.90
35635;DHT22;21757;43.610;1.440;2023-02-01T17:17:15;9.00;99.90
35635;DHT22;21757;43.610;1.440;2023-02-01T17:19:42;8.90;99.90
35635;DHT22;21757;43.610;1.440;2023-02-01T17:22:10;8.80;99.90
35635;DHT22;21757;43.610;1.440;2023-02-01T17:24:35;8.70;99.90
35635;DHT22;21757;43.610;1.440;2023-02-01T17:27:02;8.70;99.90
35635;DHT22;21757;43.610;1.440;2023-02-01T17:29:29;8.70;99.90
35635;DHT22;21757;43.610;1.440;2023-02-01T17:31:55;8.60;99.90
35635;DHT22;21757;43.610;1.440;2023-02-01T17:34:21;8.60;99.90
35635;DHT22;21757;43.610;1.440;2023-02-01T17:36:48;8.50;99.90
35635;DHT22;21757;43.610;1.440;2023-02-01T17:39:16;8.50;99.90
35635;DHT22;21757;43.610;1.440;2023-02-01T17:42:00;8.50;99.90
35635;DHT22;21757;43.610;1.440;2023-02-01T17:44:26;8.40;99.90
35635;DHT22;21757;43.610;1.440;2023-02-01T17:46:53;8.40;99.90
35635;DHT22;21757;43.610;1.440;2023-02-01T17:49:22;8.30;99.90
35635;DHT22;21757;43.610;1.440;2023-02-01T17:51:47;8.30;99.90
35635;DHT22;21757;43.610;1.440;2023-02-01T17:54:15;8.20;99.90
35635;DHT22;21757;43.610;1.440;2023-02-01T17:56:42;8.20;99.90
35635;DHT22;21757;43.610;1.440;2023-02-01T17:59:08;8.10;99.90
35635;DHT22;21757;43.610;1.440;2023-02-01T18:01:34;8.10;99.90
35635;DHT22;21757;43.610;1.440;2023-02-01T18:03:59;8.20;99.90
35635;DHT22;21757;43.610;1.440;2023-02-01T18:06:26;8.10;99.90
35635;DHT22;21757;43.610;1.440;2023-02-01T18:08:52;8.10;99.90
35635;DHT22;21757;43.610;1.440;2023-02-01T18:11:23;8.10;99.90
35635;DHT22;21757;43.610;1.440;2023-02-01T18:13:50;8.00;99.90
35635;DHT22;21757;43.610;1.440;2023-02-01T18:16:26;8.00;99.90
35635;DHT22;21757;43.610;1.440;2023-02-01T18:18:55;8.00;99.90
35635;DHT22;21757;43.610;1.440;2023-02-01T18:21:36;7.90;99.90
35635;DHT22;21757;43.610;1.440;2023-02-01T18:24:02;8.00;99.90
35635;DHT22;21757;43.610;1.440;2023-02-01T18:26:28;8.00;99.90
35635;DHT22;21757;43.610;1.440;2023-02-01T18:28:54;8.00;99.90
35635;DHT22;21757;43.610;1.440;2023-02-01T18:31:25;8.10;99.90
35635;DHT22;21757;43.610;1.440;2023-02-01T18:33:53;8.20;99.90